sensor_id;sensor_type;location;lat;lon;timestamp;pressure;altitude;pressure_sealevel;temperature;humidity
3096;BME280;1558;42.700;23.360;2022-07-23T00:01:13;95497.81;;;21.45;69.70
3096;BME280;1558;42.700;23.360;2022-07-23T00:03:47;95552.22;;;21.82;69.90
3096;BME280;1558;42.700;23.360;2022-07-23T00:06:19;95523.25;;;21.60;69.79
3096;BME280;1558;42.700;23.360;2022-07-23T00:08:47;95528.38;;;21.58;69.86
3096;BME280;1558;42.700;23.360;2022-07-23T00:11:16;95556.19;;;21.67;70.49
3096;BME280;1558;42.700;23.360;2022-07-23T00:13:44;95556.63;;;21.55;71.12
3096;BME280;1558;42.700;23.360;2022-07-23T00:16:12;95556.63;;;21.48;70.46
3096;BME280;1558;42.700;23.360;2022-07-23T00:18:40;95520.19;;;21.23;70.10
3096;BME280;1558;42.700;23.360;2022-07-23T00:21:08;95559.78;;;21.36;69.89
3096;BME280;1558;42.700;23.360;2022-07-23T00:23:38;95562.13;;;21.16;68.79
3096;BME280;1558;42.700;23.360;2022-07-23T00:26:06;95546.44;;;20.88;69.64
3096;BME280;1558;42.700;23.360;2022-07-23T00:28:34;95571.13;;;20.81;69.93
3096;BME280;1558;42.700;23.360;2022-07-23T00:31:02;95567.59;;;20.70;70.38
3096;BME280;1558;42.700;23.360;2022-07-23T00:33:30;95569.88;;;20.61;70.78
3096;BME280;1558;42.700;23.360;2022-07-23T00:35:58;95513.75;;;20.09;71.44
3096;BME280;1558;42.700;23.360;2022-07-23T00:38:26;95568.69;;;20.41;71.89
3096;BME280;1558;42.700;23.360;2022-07-23T00:40:55;95581.59;;;20.37;72.25
3096;BME280;1558;42.700;23.360;2022-07-23T00:43:23;95567.84;;;20.27;72.55
3096;BME280;1558;42.700;23.360;2022-07-23T00:45:51;95580.69;;;20.12;72.92
3096;BME280;1558;42.700;23.360;2022-07-23T00:48:20;95573.97;;;19.99;73.10
3096;BME280;1558;42.700;23.360;2022-07-23T00:50:48;95576.66;;;19.85;73.53
3096;BME280;1558;42.700;23.360;2022-07-23T00:53:16;95574.28;;;19.83;74.48
3096;BME280;1558;42.700;23.360;2022-07-23T00:55:44;95569.59;;;19.84;74.65
3096;BME280;1558;42.700;23.360;2022-07-23T00:58:14;95574.69;;;19.82;75.26
3096;BME280;1558;42.700;23.360;2022-07-23T01:00:42;95578.59;;;19.88;75.17
3096;BME280;1558;42.700;23.360;2022-07-23T01:03:10;95549.25;;;19.78;74.89
3096;BME280;1558;42.700;23.360;2022-07-23T01:05:38;95521.78;;;19.64;75.31
3096;BME280;1558;42.700;23.360;2022-07-23T01:08:06;95563.75;;;19.92;74.88
3096;BME280;1558;42.700;23.360;2022-07-23T01:10:34;95534.34;;;19.72;75.04
3096;BME280;1558;42.700;23.360;2022-07-23T01:13:04;95568.16;;;20.04;74.82
3096;BME280;1558;42.700;23.360;2022-07-23T01:15:36;95556.41;;;20.14;74.63
3096;BME280;1558;42.700;23.360;2022-07-23T01:18:05;95548.28;;;20.28;73.76
3096;BME280;1558;42.700;23.360;2022-07-23T01:20:35;95554.59;;;20.46;72.99
3096;BME280;1558;42.700;23.360;2022-07-23T01:23:04;95508.75;;;20.22;72.76
3096;BME280;1558;42.700;23.360;2022-07-23T01:25:32;95558.94;;;20.61;72.68
3096;BME280;1558;42.700;23.360;2022-07-23T01:28:00;95551.50;;;20.65;71.93
3096;BME280;1558;42.700;23.360;2022-07-23T01:30:29;95518.97;;;20.39;72.09
3096;BME280;1558;42.700;23.360;2022-07-23T01:32:56;95552.31;;;20.80;72.11
3096;BME280;1558;42.700;23.360;2022-07-23T01:35:24;95548.00;;;20.86;72.63
3096;BME280;1558;42.700;23.360;2022-07-23T01:37:52;95546.81;;;20.98;72.75
3096;BME280;1558;42.700;23.360;2022-07-23T01:40:22;95555.06;;;20.80;72.53
3096;BME280;1558;42.700;23.360;2022-07-23T01:42:50;95557.38;;;20.60;73.12
3096;BME280;1558;42.700;23.360;2022-07-23T01:45:18;95554.22;;;20.51;73.99
3096;BME280;1558;42.700;23.360;2022-07-23T01:47:46;95557.75;;;20.48;74.32
3096;BME280;1558;42.700;23.360;2022-07-23T01:50:14;95560.47;;;20.45;74.76
3096;BME280;1558;42.700;23.360;2022-07-23T01:52:42;95533.78;;;20.24;75.20
3096;BME280;1558;42.700;23.360;2022-07-23T01:55:10;95558.91;;;20.44;75.83
3096;BME280;1558;42.700;23.360;2022-07-23T01:57:45;95563.56;;;20.33;74.76
3096;BME280;1558;42.700;23.360;2022-07-23T02:00:14;95557.59;;;20.13;74.94
3096;BME280;1558;42.700;23.360;2022-07-23T02:02:42;95555.19;;;19.97;75.49
3096;BME280;1558;42.700;23.360;2022-07-23T02:05:10;95557.53;;;19.92;75.88
3096;BME280;1558;42.700;23.360;2022-07-23T02:07:38;95559.44;;;19.88;75.91
3096;BME280;1558;42.700;23.360;2022-07-23T02:10:07;95562.97;;;19.85;75.72
3096;BME280;1558;42.700;23.360;2022-07-23T02:12:35;95563.34;;;19.80;76.63
3096;BME280;1558;42.700;23.360;2022-07-23T02:15:05;95541.75;;;19.68;76.47
3096;BME280;1558;42.700;23.360;2022-07-23T02:17:35;95564.84;;;19.74;76.64
3096;BME280;1558;42.700;23.360;2022-07-23T02:20:05;95560.53;;;19.66;77.15
3096;BME280;1558;42.700;23.360;2022-07-23T02:22:33;95570.28;;;19.63;78.20
3096;BME280;1558;42.700;23.360;2022-07-23T02:25:02;95561.59;;;19.54;78.66
3096;BME280;1558;42.700;23.360;2022-07-23T02:27:30;95564.69;;;19.42;79.79
3096;BME280;1558;42.700;23.360;2022-07-23T02:29:58;95566.19;;;19.36;80.75
3096;BME280;1558;42.700;23.360;2022-07-23T02:32:28;95489.13;;;18.76;81.33
3096;BME280;1558;42.700;23.360;2022-07-23T02:34:56;95544.81;;;19.01;82.43
3096;BME280;1558;42.700;23.360;2022-07-23T02:37:23;95567.91;;;19.07;83.25
3096;BME280;1558;42.700;23.360;2022-07-23T02:39:51;95569.47;;;19.08;83.88
3096;BME280;1558;42.700;23.360;2022-07-23T02:42:19;95569.88;;;19.14;83.97
3096;BME280;1558;42.700;23.360;2022-07-23T02:44:47;95569.13;;;19.17;84.04
3096;BME280;1558;42.700;23.360;2022-07-23T02:47:15;95571.47;;;19.15;84.04
3096;BME280;1558;42.700;23.360;2022-07-23T02:49:44;95574.22;;;19.15;84.05
3096;BME280;1558;42.700;23.360;2022-07-23T02:52:12;95573.81;;;19.13;84.56
3096;BME280;1558;42.700;23.360;2022-07-23T02:54:40;95573.81;;;19.13;84.73
3096;BME280;1558;42.700;23.360;2022-07-23T02:57:08;95573.00;;;19.09;84.93
3096;BME280;1558;42.700;23.360;2022-07-23T02:59:36;95544.28;;;18.85;85.09
3096;BME280;1558;42.700;23.360;2022-07-23T03:02:04;95587.78;;;19.04;85.29
3096;BME280;1558;42.700;23.360;2022-07-23T03:04:33;95580.34;;;19.01;85.84
3096;BME280;1558;42.700;23.360;2022-07-23T03:07:02;95589.34;;;19.02;86.03
3096;BME280;1558;42.700;23.360;2022-07-23T03:09:30;95593.97;;;18.94;86.51
3096;BME280;1558;42.700;23.360;2022-07-23T03:11:58;95593.50;;;18.85;87.25
3096;BME280;1558;42.700;23.360;2022-07-23T03:14:26;95592.31;;;18.86;87.67
3096;BME280;1558;42.700;23.360;2022-07-23T03:16:55;95594.72;;;18.91;88.39
3096;BME280;1558;42.700;23.360;2022-07-23T03:19:23;95591.69;;;19.03;88.11
3096;BME280;1558;42.700;23.360;2022-07-23T03:21:51;95606.63;;;19.16;87.49
3096;BME280;1558;42.700;23.360;2022-07-23T03:24:20;95611.31;;;19.12;87.31
3096;BME280;1558;42.700;23.360;2022-07-23T03:26:50;95604.97;;;19.01;87.42
3096;BME280;1558;42.700;23.360;2022-07-23T03:29:18;95605.66;;;18.91;87.77
3096;BME280;1558;42.700;23.360;2022-07-23T03:31:45;95609.94;;;18.88;88.10
3096;BME280;1558;42.700;23.360;2022-07-23T03:34:13;95604.84;;;18.87;87.84
3096;BME280;1558;42.700;23.360;2022-07-23T03:36:41;95606.47;;;18.95;88.34
3096;BME280;1558;42.700;23.360;2022-07-23T03:39:09;95605.75;;;19.02;87.76
3096;BME280;1558;42.700;23.360;2022-07-23T03:41:41;95612.00;;;19.02;87.43
3096;BME280;1558;42.700;23.360;2022-07-23T03:44:09;95613.59;;;19.07;86.35
3096;BME280;1558;42.700;23.360;2022-07-23T03:46:37;95616.69;;;19.02;85.99
3096;BME280;1558;42.700;23.360;2022-07-23T03:49:05;95410.94;;;17.73;86.60
3096;BME280;1558;42.700;23.360;2022-07-23T03:51:33;95616.50;;;19.24;86.91
3096;BME280;1558;42.700;23.360;2022-07-23T03:54:01;95614.59;;;19.35;86.28
3096;BME280;1558;42.700;23.360;2022-07-23T03:56:29;95614.22;;;19.33;85.97
3096;BME280;1558;42.700;23.360;2022-07-23T03:58:58;95603.25;;;19.33;85.76
3096;BME280;1558;42.700;23.360;2022-07-23T04:01:27;95611.56;;;19.40;85.73
3096;BME280;1558;42.700;23.360;2022-07-23T04:03:55;95612.78;;;19.46;85.49
3096;BME280;1558;42.700;23.360;2022-07-23T04:06:23;95615.63;;;19.61;85.04
3096;BME280;1558;42.700;23.360;2022-07-23T04:08:51;95615.72;;;19.75;84.42
3096;BME280;1558;42.700;23.360;2022-07-23T04:11:19;95574.91;;;19.55;83.76
3096;BME280;1558;42.700;23.360;2022-07-23T04:13:47;95624.38;;;19.84;83.33
3096;BME280;1558;42.700;23.360;2022-07-23T04:16:16;95620.84;;;19.83;83.13
3096;BME280;1558;42.700;23.360;2022-07-23T04:18:44;95619.72;;;19.91;83.02
3096;BME280;1558;42.700;23.360;2022-07-23T04:21:12;95625.22;;;20.02;81.64
3096;BME280;1558;42.700;23.360;2022-07-23T04:23:40;95628.00;;;20.09;81.15
3096;BME280;1558;42.700;23.360;2022-07-23T04:26:09;95624.94;;;20.21;81.09
3096;BME280;1558;42.700;23.360;2022-07-23T04:28:43;95613.59;;;20.19;80.82
3096;BME280;1558;42.700;23.360;2022-07-23T04:31:11;95628.53;;;20.25;80.70
3096;BME280;1558;42.700;23.360;2022-07-23T04:33:40;95625.72;;;20.21;80.63
3096;BME280;1558;42.700;23.360;2022-07-23T04:36:08;95605.69;;;20.03;80.28
3096;BME280;1558;42.700;23.360;2022-07-23T04:38:36;95630.72;;;20.02;80.99
3096;BME280;1558;42.700;23.360;2022-07-23T04:41:04;95622.91;;;20.04;82.09
3096;BME280;1558;42.700;23.360;2022-07-23T04:43:32;95625.31;;;20.19;82.17
3096;BME280;1558;42.700;23.360;2022-07-23T04:46:00;95576.69;;;19.95;81.15
3096;BME280;1558;42.700;23.360;2022-07-23T04:48:28;95634.09;;;20.53;80.15
3096;BME280;1558;42.700;23.360;2022-07-23T04:50:58;95631.44;;;20.74;79.46
3096;BME280;1558;42.700;23.360;2022-07-23T04:53:25;95636.56;;;20.93;78.87
3096;BME280;1558;42.700;23.360;2022-07-23T04:55:53;95620.50;;;20.96;77.50
3096;BME280;1558;42.700;23.360;2022-07-23T04:58:21;95646.81;;;21.14;77.35
3096;BME280;1558;42.700;23.360;2022-07-23T05:00:49;95636.59;;;21.11;77.24
3096;BME280;1558;42.700;23.360;2022-07-23T05:03:17;95623.28;;;21.31;77.19
3096;BME280;1558;42.700;23.360;2022-07-23T05:05:45;95638.56;;;21.95;75.13
3096;BME280;1558;42.700;23.360;2022-07-23T05:08:14;95640.44;;;22.27;73.71
3096;BME280;1558;42.700;23.360;2022-07-23T05:10:42;95611.84;;;22.06;73.18
3096;BME280;1558;42.700;23.360;2022-07-23T05:13:11;95633.72;;;22.35;72.96
3096;BME280;1558;42.700;23.360;2022-07-23T05:15:39;95630.91;;;22.63;71.44
3096;BME280;1558;42.700;23.360;2022-07-23T05:18:07;95579.09;;;22.44;70.61
3096;BME280;1558;42.700;23.360;2022-07-23T05:20:36;95643.63;;;23.01;70.27
3096;BME280;1558;42.700;23.360;2022-07-23T05:23:04;95597.31;;;22.96;68.67
3096;BME280;1558;42.700;23.360;2022-07-23T05:25:33;95626.09;;;23.39;68.31
3096;BME280;1558;42.700;23.360;2022-07-23T05:28:01;95638.63;;;23.92;67.34
3096;BME280;1558;42.700;23.360;2022-07-23T05:30:29;95639.09;;;24.24;65.92
3096;BME280;1558;42.700;23.360;2022-07-23T05:32:57;95639.72;;;25.03;63.91
3096;BME280;1558;42.700;23.360;2022-07-23T05:35:25;95637.94;;;25.42;61.11
3096;BME280;1558;42.700;23.360;2022-07-23T05:37:53;95641.88;;;26.14;59.59
3096;BME280;1558;42.700;23.360;2022-07-23T05:40:21;95640.81;;;26.67;57.89
3096;BME280;1558;42.700;23.360;2022-07-23T05:42:50;95638.16;;;26.83;56.56
3096;BME280;1558;42.700;23.360;2022-07-23T05:45:18;95615.00;;;27.45;54.75
3096;BME280;1558;42.700;23.360;2022-07-23T05:47:49;95641.41;;;27.98;52.46
3096;BME280;1558;42.700;23.360;2022-07-23T05:50:17;95624.00;;;27.49;53.03
3096;BME280;1558;42.700;23.360;2022-07-23T05:52:46;95645.66;;;27.87;52.62
3096;BME280;1558;42.700;23.360;2022-07-23T05:55:14;95625.31;;;27.45;52.30
3096;BME280;1558;42.700;23.360;2022-07-23T05:57:42;95639.19;;;27.25;52.88
3096;BME280;1558;42.700;23.360;2022-07-23T06:00:12;95643.91;;;26.93;53.60
3096;BME280;1558;42.700;23.360;2022-07-23T06:02:40;95628.72;;;27.17;53.05
3096;BME280;1558;42.700;23.360;2022-07-23T06:05:09;95640.44;;;27.89;52.25
3096;BME280;1558;42.700;23.360;2022-07-23T06:07:37;95635.78;;;28.75;50.05
3096;BME280;1558;42.700;23.360;2022-07-23T06:10:06;95469.91;;;27.36;49.02
3096;BME280;1558;42.700;23.360;2022-07-23T06:12:34;95589.97;;;28.10;49.19
3096;BME280;1558;42.700;23.360;2022-07-23T06:15:03;95626.56;;;28.21;49.11
3096;BME280;1558;42.700;23.360;2022-07-23T06:17:38;95641.00;;;28.86;48.99
3096;BME280;1558;42.700;23.360;2022-07-23T06:20:07;95638.00;;;28.52;47.24
3096;BME280;1558;42.700;23.360;2022-07-23T06:22:36;95634.59;;;28.60;48.38
3096;BME280;1558;42.700;23.360;2022-07-23T06:25:05;95632.88;;;28.66;48.21
3096;BME280;1558;42.700;23.360;2022-07-23T06:27:44;95639.88;;;28.42;47.67
3096;BME280;1558;42.700;23.360;2022-07-23T06:30:13;95633.91;;;28.85;46.37
3096;BME280;1558;42.700;23.360;2022-07-23T06:32:45;95585.56;;;29.08;45.52
3096;BME280;1558;42.700;23.360;2022-07-23T06:35:13;95632.56;;;28.90;46.05
3096;BME280;1558;42.700;23.360;2022-07-23T06:37:41;95623.97;;;29.25;46.39
3096;BME280;1558;42.700;23.360;2022-07-23T06:40:11;95616.25;;;28.92;44.64
3096;BME280;1558;42.700;23.360;2022-07-23T06:42:39;95629.88;;;30.12;44.91
3096;BME280;1558;42.700;23.360;2022-07-23T06:45:08;95628.78;;;30.87;42.11
3096;BME280;1558;42.700;23.360;2022-07-23T06:47:36;95631.75;;;30.15;42.95
3096;BME280;1558;42.700;23.360;2022-07-23T06:50:06;95629.06;;;30.58;43.21
3096;BME280;1558;42.700;23.360;2022-07-23T06:52:34;95626.72;;;31.00;42.60
3096;BME280;1558;42.700;23.360;2022-07-23T06:55:08;95627.78;;;31.24;41.77
3096;BME280;1558;42.700;23.360;2022-07-23T06:57:36;95617.78;;;31.76;39.72
3096;BME280;1558;42.700;23.360;2022-07-23T07:00:05;95611.22;;;31.70;40.40
3096;BME280;1558;42.700;23.360;2022-07-23T07:02:33;95608.16;;;31.77;40.24
3096;BME280;1558;42.700;23.360;2022-07-23T07:05:02;95617.72;;;31.67;40.27
3096;BME280;1558;42.700;23.360;2022-07-23T07:07:33;95599.91;;;31.33;38.76
3096;BME280;1558;42.700;23.360;2022-07-23T07:10:02;95605.34;;;31.28;39.31
3096;BME280;1558;42.700;23.360;2022-07-23T07:12:29;95615.78;;;31.85;38.39
3096;BME280;1558;42.700;23.360;2022-07-23T07:14:57;95607.31;;;32.16;37.62
3096;BME280;1558;42.700;23.360;2022-07-23T07:17:25;95611.69;;;32.53;36.93
3096;BME280;1558;42.700;23.360;2022-07-23T07:19:53;95548.97;;;32.09;37.71
3096;BME280;1558;42.700;23.360;2022-07-23T07:22:21;95606.34;;;32.73;38.19
3096;BME280;1558;42.700;23.360;2022-07-23T07:24:51;95608.09;;;32.80;37.30
3096;BME280;1558;42.700;23.360;2022-07-23T07:27:19;95585.50;;;33.11;36.46
3096;BME280;1558;42.700;23.360;2022-07-23T07:29:47;95610.22;;;33.03;36.54
3096;BME280;1558;42.700;23.360;2022-07-23T07:32:15;95607.59;;;32.45;37.51
3096;BME280;1558;42.700;23.360;2022-07-23T07:35:03;95591.44;;;32.86;37.50
3096;BME280;1558;42.700;23.360;2022-07-23T07:37:31;95550.81;;;32.57;37.10
3096;BME280;1558;42.700;23.360;2022-07-23T07:40:02;95592.88;;;33.32;36.77
3096;BME280;1558;42.700;23.360;2022-07-23T07:42:30;95567.75;;;33.23;35.25
3096;BME280;1558;42.700;23.360;2022-07-23T07:44:58;95591.38;;;33.64;35.26
3096;BME280;1558;42.700;23.360;2022-07-23T07:47:26;95599.41;;;33.94;35.62
3096;BME280;1558;42.700;23.360;2022-07-23T07:49:54;95569.97;;;33.99;34.20
3096;BME280;1558;42.700;23.360;2022-07-23T07:52:22;95602.28;;;34.47;33.91
3096;BME280;1558;42.700;23.360;2022-07-23T07:54:50;95606.00;;;34.15;33.61
3096;BME280;1558;42.700;23.360;2022-07-23T07:57:20;95595.84;;;33.70;35.03
3096;BME280;1558;42.700;23.360;2022-07-23T07:59:48;95590.16;;;33.79;34.71
3096;BME280;1558;42.700;23.360;2022-07-23T08:02:22;95546.78;;;33.51;34.19
3096;BME280;1558;42.700;23.360;2022-07-23T08:04:50;95583.44;;;33.62;34.39
3096;BME280;1558;42.700;23.360;2022-07-23T08:07:18;95573.72;;;34.20;33.68
3096;BME280;1558;42.700;23.360;2022-07-23T08:09:47;95577.81;;;34.86;32.88
3096;BME280;1558;42.700;23.360;2022-07-23T08:12:14;95576.44;;;35.55;32.38
3096;BME280;1558;42.700;23.360;2022-07-23T08:14:44;95577.34;;;35.31;32.11
3096;BME280;1558;42.700;23.360;2022-07-23T08:17:12;95577.50;;;35.43;32.31
3096;BME280;1558;42.700;23.360;2022-07-23T08:19:41;95581.97;;;34.91;31.41
3096;BME280;1558;42.700;23.360;2022-07-23T08:22:08;95555.94;;;34.90;31.79
3096;BME280;1558;42.700;23.360;2022-07-23T08:24:37;95571.81;;;36.07;30.96
3096;BME280;1558;42.700;23.360;2022-07-23T08:27:05;95575.13;;;36.45;29.69
3096;BME280;1558;42.700;23.360;2022-07-23T08:29:33;95572.09;;;35.54;30.02
3096;BME280;1558;42.700;23.360;2022-07-23T08:32:02;95570.09;;;35.25;31.01
3096;BME280;1558;42.700;23.360;2022-07-23T08:34:50;95513.59;;;34.88;30.78
3096;BME280;1558;42.700;23.360;2022-07-23T08:37:18;95565.56;;;35.48;30.75
3096;BME280;1558;42.700;23.360;2022-07-23T08:39:46;95563.53;;;35.83;30.62
3096;BME280;1558;42.700;23.360;2022-07-23T08:42:14;95574.25;;;36.39;30.07
3096;BME280;1558;42.700;23.360;2022-07-23T08:44:45;95570.44;;;36.62;30.08
3096;BME280;1558;42.700;23.360;2022-07-23T08:47:15;95561.47;;;37.41;28.79
3096;BME280;1558;42.700;23.360;2022-07-23T08:49:43;95564.53;;;36.40;29.34
3096;BME280;1558;42.700;23.360;2022-07-23T08:52:13;95561.28;;;36.02;30.11
3096;BME280;1558;42.700;23.360;2022-07-23T08:54:43;95564.81;;;36.42;30.12
3096;BME280;1558;42.700;23.360;2022-07-23T08:57:14;95544.56;;;37.10;29.38
3096;BME280;1558;42.700;23.360;2022-07-23T08:59:42;95556.94;;;37.18;29.22
3096;BME280;1558;42.700;23.360;2022-07-23T09:02:11;95550.13;;;36.99;28.59
3096;BME280;1558;42.700;23.360;2022-07-23T09:04:41;95543.59;;;36.61;29.38
3096;BME280;1558;42.700;23.360;2022-07-23T09:07:09;95518.84;;;36.65;29.20
3096;BME280;1558;42.700;23.360;2022-07-23T09:09:37;95549.34;;;36.98;29.36
3096;BME280;1558;42.700;23.360;2022-07-23T09:12:07;95548.97;;;37.16;29.20
3096;BME280;1558;42.700;23.360;2022-07-23T09:14:36;95550.28;;;37.21;28.54
3096;BME280;1558;42.700;23.360;2022-07-23T09:17:12;95552.78;;;37.45;27.76
3096;BME280;1558;42.700;23.360;2022-07-23T09:19:42;95539.47;;;37.14;27.68
3096;BME280;1558;42.700;23.360;2022-07-23T09:22:18;95547.34;;;36.79;28.14
3096;BME280;1558;42.700;23.360;2022-07-23T09:25:07;95498.28;;;36.34;28.58
3096;BME280;1558;42.700;23.360;2022-07-23T09:27:55;95542.16;;;36.97;27.95
3096;BME280;1558;42.700;23.360;2022-07-23T09:30:24;95548.09;;;37.05;27.69
3096;BME280;1558;42.700;23.360;2022-07-23T09:33:08;95521.53;;;37.06;27.18
3096;BME280;1558;42.700;23.360;2022-07-23T09:35:45;95543.78;;;37.77;26.65
3096;BME280;1558;42.700;23.360;2022-07-23T09:38:14;95538.94;;;37.10;27.49
3096;BME280;1558;42.700;23.360;2022-07-23T09:40:44;95524.72;;;37.61;26.81
3096;BME280;1558;42.700;23.360;2022-07-23T09:43:12;95525.69;;;38.59;26.46
3096;BME280;1558;42.700;23.360;2022-07-23T09:45:40;95521.38;;;39.64;25.08
3096;BME280;1558;42.700;23.360;2022-07-23T09:48:13;95519.16;;;40.14;24.02
3096;BME280;1558;42.700;23.360;2022-07-23T09:50:42;95520.09;;;40.39;23.19
3096;BME280;1558;42.700;23.360;2022-07-23T09:53:23;95512.16;;;39.41;23.21
3096;BME280;1558;42.700;23.360;2022-07-23T09:55:54;95515.75;;;38.86;23.61
3096;BME280;1558;42.700;23.360;2022-07-23T09:58:27;95480.91;;;38.14;24.47
3096;BME280;1558;42.700;23.360;2022-07-23T10:00:57;95515.22;;;38.07;25.16
3096;BME280;1558;42.700;23.360;2022-07-23T10:03:26;95503.69;;;38.05;24.58
3096;BME280;1558;42.700;23.360;2022-07-23T10:05:54;95495.72;;;38.84;23.93
3096;BME280;1558;42.700;23.360;2022-07-23T10:08:23;95496.69;;;38.59;23.86
3096;BME280;1558;42.700;23.360;2022-07-23T10:10:53;95500.50;;;38.34;23.89
3096;BME280;1558;42.700;23.360;2022-07-23T10:13:22;95498.25;;;39.49;23.32
3096;BME280;1558;42.700;23.360;2022-07-23T10:16:07;95491.84;;;39.48;23.31
3096;BME280;1558;42.700;23.360;2022-07-23T10:18:35;95488.53;;;39.39;23.06
3096;BME280;1558;42.700;23.360;2022-07-23T10:21:10;95487.47;;;39.42;23.23
3096;BME280;1558;42.700;23.360;2022-07-23T10:23:51;95457.41;;;39.44;22.22
3096;BME280;1558;42.700;23.360;2022-07-23T10:26:34;95470.50;;;40.27;22.62
3096;BME280;1558;42.700;23.360;2022-07-23T10:29:15;95477.09;;;39.88;21.64
3096;BME280;1558;42.700;23.360;2022-07-23T10:31:56;95378.59;;;39.46;20.81
3096;BME280;1558;42.700;23.360;2022-07-23T10:34:38;95443.59;;;40.09;19.76
3096;BME280;1558;42.700;23.360;2022-07-23T10:37:14;95474.63;;;40.26;19.64
3096;BME280;1558;42.700;23.360;2022-07-23T10:40:08;95431.41;;;39.79;20.13
3096;BME280;1558;42.700;23.360;2022-07-23T10:42:37;95426.00;;;39.75;20.00
3096;BME280;1558;42.700;23.360;2022-07-23T10:45:23;95463.84;;;40.24;20.21
3096;BME280;1558;42.700;23.360;2022-07-23T10:47:51;95458.59;;;40.45;20.02
3096;BME280;1558;42.700;23.360;2022-07-23T10:50:22;95457.28;;;40.81;20.13
3096;BME280;1558;42.700;23.360;2022-07-23T10:53:15;95456.88;;;40.66;19.26
3096;BME280;1558;42.700;23.360;2022-07-23T10:55:51;95451.81;;;41.18;19.20
3096;BME280;1558;42.700;23.360;2022-07-23T11:01:32;95444.50;;;39.82;18.97
3096;BME280;1558;42.700;23.360;2022-07-23T11:04:00;95413.34;;;39.93;19.12
3096;BME280;1558;42.700;23.360;2022-07-23T11:07:07;95404.94;;;40.64;18.88
3096;BME280;1558;42.700;23.360;2022-07-23T11:09:39;95434.09;;;41.42;18.13
3096;BME280;1558;42.700;23.360;2022-07-23T11:12:34;95432.94;;;41.02;17.92
3096;BME280;1558;42.700;23.360;2022-07-23T11:15:06;95427.56;;;41.77;17.44
3096;BME280;1558;42.700;23.360;2022-07-23T11:17:37;95425.28;;;41.70;18.53
3096;BME280;1558;42.700;23.360;2022-07-23T11:20:21;95417.06;;;41.18;18.00
3096;BME280;1558;42.700;23.360;2022-07-23T11:22:51;95418.22;;;41.34;18.41
3096;BME280;1558;42.700;23.360;2022-07-23T11:25:33;95407.19;;;41.30;17.53
3096;BME280;1558;42.700;23.360;2022-07-23T11:28:12;95406.50;;;41.18;17.73
3096;BME280;1558;42.700;23.360;2022-07-23T11:30:42;95404.75;;;40.15;17.86
3096;BME280;1558;42.700;23.360;2022-07-23T11:33:20;95407.94;;;38.49;17.90
3096;BME280;1558;42.700;23.360;2022-07-23T11:36:00;95369.13;;;37.83;18.80
3096;BME280;1558;42.700;23.360;2022-07-23T11:38:31;95409.72;;;37.54;19.12
3096;BME280;1558;42.700;23.360;2022-07-23T11:41:00;95403.34;;;38.46;18.82
3096;BME280;1558;42.700;23.360;2022-07-23T11:43:29;95374.88;;;38.83;17.84
3096;BME280;1558;42.700;23.360;2022-07-23T11:45:59;95392.91;;;37.76;18.38
3096;BME280;1558;42.700;23.360;2022-07-23T11:48:29;95403.69;;;37.30;19.33
3096;BME280;1558;42.700;23.360;2022-07-23T11:51:04;95348.91;;;37.84;19.56
3096;BME280;1558;42.700;23.360;2022-07-23T11:53:33;95383.31;;;38.49;19.06
3096;BME280;1558;42.700;23.360;2022-07-23T11:56:06;95383.59;;;38.57;18.78
3096;BME280;1558;42.700;23.360;2022-07-23T11:58:36;95376.09;;;39.04;18.28
3096;BME280;1558;42.700;23.360;2022-07-23T12:01:04;95386.94;;;38.83;18.69
3096;BME280;1558;42.700;23.360;2022-07-23T12:03:49;95375.03;;;38.02;19.58
3096;BME280;1558;42.700;23.360;2022-07-23T12:06:17;95345.44;;;37.47;19.27
3096;BME280;1558;42.700;23.360;2022-07-23T12:08:45;95380.56;;;37.63;19.31
3096;BME280;1558;42.700;23.360;2022-07-23T12:11:13;95375.09;;;38.13;17.97
3096;BME280;1558;42.700;23.360;2022-07-23T12:13:43;95374.94;;;37.63;17.69
3096;BME280;1558;42.700;23.360;2022-07-23T12:16:11;95370.34;;;37.65;17.91
3096;BME280;1558;42.700;23.360;2022-07-23T12:18:39;95368.56;;;37.68;17.30
3096;BME280;1558;42.700;23.360;2022-07-23T12:21:07;95370.84;;;37.69;16.91
3096;BME280;1558;42.700;23.360;2022-07-23T12:23:35;95365.25;;;37.21;17.39
3096;BME280;1558;42.700;23.360;2022-07-23T12:26:04;95359.38;;;36.77;17.73
3096;BME280;1558;42.700;23.360;2022-07-23T12:28:33;95357.50;;;37.05;17.85
3096;BME280;1558;42.700;23.360;2022-07-23T12:31:05;95351.50;;;36.87;17.83
3096;BME280;1558;42.700;23.360;2022-07-23T12:33:36;95355.22;;;37.04;18.57
3096;BME280;1558;42.700;23.360;2022-07-23T12:36:06;95357.13;;;37.35;18.19
3096;BME280;1558;42.700;23.360;2022-07-23T12:38:38;95351.59;;;37.51;18.62
3096;BME280;1558;42.700;23.360;2022-07-23T12:41:06;95342.63;;;37.53;18.16
3096;BME280;1558;42.700;23.360;2022-07-23T12:43:37;95351.66;;;37.68;18.37
3096;BME280;1558;42.700;23.360;2022-07-23T12:46:08;95348.34;;;37.75;17.88
3096;BME280;1558;42.700;23.360;2022-07-23T12:48:38;95347.34;;;37.19;17.64
3096;BME280;1558;42.700;23.360;2022-07-23T12:51:07;95345.25;;;36.72;18.14
3096;BME280;1558;42.700;23.360;2022-07-23T12:53:45;95338.81;;;36.34;18.00
3096;BME280;1558;42.700;23.360;2022-07-23T12:56:16;95330.59;;;36.31;17.36
3096;BME280;1558;42.700;23.360;2022-07-23T12:58:48;95336.94;;;36.51;17.50
3096;BME280;1558;42.700;23.360;2022-07-23T13:01:26;95202.50;;;36.13;17.88
3096;BME280;1558;42.700;23.360;2022-07-23T13:03:59;95333.75;;;37.12;17.74
3096;BME280;1558;42.700;23.360;2022-07-23T13:06:28;95322.75;;;37.14;17.76
3096;BME280;1558;42.700;23.360;2022-07-23T13:08:57;95324.03;;;37.18;16.97
3096;BME280;1558;42.700;23.360;2022-07-23T13:11:27;95319.88;;;37.03;17.14
3096;BME280;1558;42.700;23.360;2022-07-23T13:13:56;95321.75;;;36.75;17.89
3096;BME280;1558;42.700;23.360;2022-07-23T13:16:26;95282.59;;;36.34;18.19
3096;BME280;1558;42.700;23.360;2022-07-23T13:18:54;95318.47;;;36.82;17.79
3096;BME280;1558;42.700;23.360;2022-07-23T13:21:25;95318.50;;;36.87;17.84
3096;BME280;1558;42.700;23.360;2022-07-23T13:23:54;95311.06;;;37.32;16.69
3096;BME280;1558;42.700;23.360;2022-07-23T13:26:22;95318.16;;;37.86;16.95
3096;BME280;1558;42.700;23.360;2022-07-23T13:28:50;95313.03;;;38.02;15.14